< < Back
Terminal Aerodrome Forecast


Current Version              Previous Versions:   1  2  3  4  5  6  7  8  9  

Terminal Aerodrome Forecast

886
FTUS42 KGSP 252320
TAFGSP
TAF
KGSP 252320Z 2600/2624 16003KT P6SM FEW050 SCT250
     FM260600 VRB03KT P6SM FEW250
     FM261500 04004KT P6SM FEW045
     FM262100 10005KT P6SM SCT045=



Latest METAR

703
SAUS70 KWBC 260256
MTRGSP
METAR KGSP 260253Z 00000KT 10SM CLR 25/22 A3011 RMK AO2 SLP184 T02500217
51007


USA.gov is the U.S. government's official web portal to all federal, state and local government web resources and services.